Weather observations for the past three days for
Granbury, Granbury Municipal Airport
Metric (Imperial)
Date Time (cdt) Wind (kph) Vis. (km) Weather Sky Cond. Temperature (ºC) Relative Humidity Wind Chill (°C) Heat Index (°C) Pressure Precipitation (cm)
Air Dwpt 6 hour altimeter (cm) sea level (mb) 1 hr 3 hr 6 hr
Max. Min.
03 17:55 S 26 16.09 Fair CLR 27 6 26% 26 76.15 0.0
03 17:35 S 26 G 31 16.09 Fair CLR 27 6 26% 26 76.15 0.0
03 17:15 S 24 G 35 16.09 Fair CLR 27 6 26% 26 76.17 0.0
03 16:55 SW 28 G 35 16.09 Fair CLR 27 6 26% 26 76.17 0.0
03 16:35 S 26 G 39 16.09 Fair CLR 27 7 28% 26 76.2 0.0
03 16:15 S 31 G 39 16.09 Fair CLR 27 7 28% 26 76.23 0.0
03 15:55 S 26 16.09 Fair CLR 27 7 28% 26 76.28 0.0
03 15:35 S 22 16.09 Fair CLR 27 6 26% 26 76.3 0.0
03 15:15 S 26 G 37 16.09 Fair CLR 28 7 26% 27 76.33 0.0
03 14:55 S 19 G 35 16.09 Fair CLR 28 6 25% 27 76.35 0.0
03 14:35 S 24 G 33 16.09 Fair CLR 27 6 26% 26 76.35 0.0
03 14:15 S 24 16.09 Fair CLR 27 6 26% 26 76.4 0.0
03 13:55 S 22 G 35 16.09 Fair CLR 27 6 26% 26 76.43 0.0
03 13:35 SW 17 16.09 Fair CLR 27 6 26% 26 76.45 0.0
03 13:15 SW 13 G 28 16.09 Fair CLR 26 6 28% 26 76.48 0.0
03 12:55 SW 17 G 30 16.09 Fair CLR 26 7 26.4 8.7 30% 26 76.48 0.0
03 12:35 SW 20 G 28 16.09 Fair CLR 26 9 34% 26 76.5 0.0
03 12:15 SW 13 G 28 16.09 Fair CLR 26 8 32% 26 76.53 0.0
03 11:55 SW 19 G 26 16.09 Fair CLR 25 9 36% 26 76.56 0.0
03 11:35 SW 17 16.09 Fair CLR 25 10 39% 26 76.58 0.0
03 11:15 SW 13 G 26 16.09 Fair CLR 24 10 41% 25 76.61 0.0
03 10:55 SW 11 16.09 Fair CLR 24 9 39% 25 76.61 0.0
03 10:35 SW 15 16.09 Fair CLR 23 9 41% 76.61 0.0
03 10:15 W 17 16.09 Fair CLR 22 9 44% 76.61 0.0
03 09:55 W 15 16.09 Fair CLR 21 10 50% 76.61 0.0
03 09:35 SW 11 16.09 Fair CLR 20 10 53% 76.61 0.0
03 09:15 W 13 16.09 Fair CLR 19 9 52% 76.61 0.0
03 08:55 W 9 16.09 Fair CLR 18 10 60% 76.61 0.0
03 08:35 Vrbl 2 16.09 Fair CLR 16 10 68% 76.58 0.0
03 08:15 E 4 16.09 Fair CLR 15 9 68% 76.58 0.0
03 07:55 SE 2 16.09 Fair CLR 12 10 88% 76.58 0.0
03 07:35 NE 2 16.09 Fair CLR 10 8 88% 76.56 0.0
03 07:15 NW 4 16.09 Fair CLR 9 7 87% 76.53 0.0
03 06:55 Vrbl 2 16.09 Fair CLR 10 7 16.1 9.6 82% 76.5 0.0
03 06:35 S 4 16.09 Fair CLR 10 7 82% 76.5 0.0
03 06:15 W 4 16.09 Fair CLR 10 7 82% 76.5 0.0
03 05:35 Vrbl 2 16.09 Fair CLR 10 7 82% 76.48 0.0
03 05:15 Calm 16.09 Fair CLR 11 7 77% 76.48 0.0
03 04:55 S 2 16.09 Fair CLR 11 7 77% 76.48 0.0
03 04:35 S 4 16.09 Fair CLR 11 8 82% 76.48 0.0
03 04:15 Calm 16.09 Fair CLR 11 8 82% 76.48 0.0
03 03:55 Vrbl 2 16.09 Fair CLR 12 8 77% 76.48 0.0
03 03:35 SE 7 16.09 Fair CLR 12 8 77% 76.45 0.0
03 03:15 SE 7 16.09 Fair CLR 13 8 72% 76.48 0.0
03 02:55 SE 6 16.09 Fair CLR 13 8 72% 76.48 0.0
03 02:35 SE 7 16.09 Fair CLR 13 8 72% 76.48 0.0
03 02:15 Vrbl 4 16.09 Fair CLR 12 8 77% 76.5 0.0
03 01:55 Vrbl 4 16.09 Fair CLR 14 8 67% 76.5 0.0
03 01:35 SW 9 16.09 Fair CLR 14 7 63% 76.5 0.0
03 01:15 SW 13 16.09 Fair CLR 16 7 55% 76.5 0.0
03 00:55 S 19 16.09 Fair CLR 16 7 24.4 12.8 55% 76.5 0.0
03 00:35 SW 11 16.09 Fair CLR 13 8 72% 76.5 0.0
03 00:15 SW 2 16.09 Fair CLR 13 8 72% 76.5 0.0
02 23:55 SW 6 16.09 Fair CLR 14 8 67% 76.48 0.0
02 23:35 SW 4 16.09 Fair CLR 14 8 67% 76.48 0.0
02 23:15 SW 4 16.09 Fair CLR 14 7 63% 76.48 0.0
02 22:55 SW 6 16.09 Fair CLR 15 7 59% 76.48 0.0
02 22:35 S 15 16.09 Fair CLR 16 7 55% 76.48 0.0
02 22:15 S 15 16.09 Fair CLR 16 7 55% 76.48 0.0
02 21:55 SW 6 16.09 Fair CLR 16 7 55% 76.45 0.0
02 21:35 S 7 16.09 Fair CLR 16 8 59% 76.45 0.0
02 21:15 SW 7 16.09 Fair CLR 17 8 56% 76.43 0.0
02 20:55 S 11 16.09 Fair CLR 19 6 43% 76.43 0.0
02 20:35 S 9 16.09 Fair CLR 19 8 49% 76.43 0.0
02 20:15 S 2 16.09 Fair CLR 21 5 35% 76.4 0.0
02 19:55 E 2 16.09 Fair CLR 23 4 29% 76.4 0.0
02 19:35 Calm 16.09 Fair CLR 24 7 34% 25 76.4 0.0
02 19:15 NE 4 16.09 NULL NULL 24 6 31% 25 76.4 0.0
02 09:55 NW 13 16.09 Fair CLR 17 11 68% 76.66 0.0
02 09:35 NW 11 16.09 Fair CLR 16 10 68% 76.66 0.0
02 09:15 Vrbl 7 16.09 Fair CLR 15 10 72% 76.66 0.0
02 08:55 N 6 16.09 Fair CLR 13 10 82% 76.66 0.0
02 08:35 Vrbl 4 16.09 Fair CLR 12 9 82% 76.63 0.0
02 07:56 N 6 16.09 Fair CLR 9 7 87% 76.61 0.0
02 07:35 W 6 16.09 Fair CLR 9 7 87% 76.58 0.0
02 07:15 W 9 16.09 Fair CLR 8 6 87% 7 76.56 0.0
02 06:55 W 7 16.09 Fair CLR 7 6 11.4 6.8 93% 6 76.56 0.0
02 06:35 NW 9 16.09 Fair CLR 8 6 87% 7 76.53 0.0
02 06:15 W 6 16.09 Fair CLR 8 7 93% 76.5 0.0
02 05:55 W 4 16.09 Fair CLR 7 7 100% 76.48 0.0
02 05:35 Calm 16.09 Fair CLR 7 7 100% 76.45 0.0
02 05:15 Calm 16.09 Fair CLR 7 7 100% 76.45 0.0
02 04:55 NW 2 16.09 Fair CLR 7 6 93% 76.43 0.0
02 04:35 W 4 16.09 Fair CLR 9 7 87% 76.45 0.0
02 04:15 W 7 16.09 Fair CLR 9 7 87% 8 76.43 0.0
02 03:55 SW 9 16.09 Fair CLR 9 7 87% 8 76.43 0.0
02 03:35 W 9 16.09 Fair CLR 9 7 87% 8 76.43 0.0
02 03:15 W 11 16.09 Fair CLR 9 8 94% 8 76.43 0.0
02 02:55 W 9 16.09 Fair CLR 10 8 88% 9 76.43 0.0
02 02:15 W 9 16.09 Fair CLR 11 8 82% 76.43 0.0
02 01:55 SW 9 16.09 Fair CLR 11 8 82% 76.43 0.0
02 01:35 SW 11 16.09 Fair CLR 11 8 82% 76.45 0.0
02 01:15 W 7 16.09 Fair CLR 11 8 82% 76.45 0.0
02 00:55 W 9 16.09 Fair CLR 11 8 16.7 10.2 82% 76.45 0.0
02 00:35 W 4 16.09 Fair CLR 11 9 88% 76.45 0.0
02 00:15 W 4 16.09 Fair CLR 11 9 88% 76.45 0.0
01 23:55 W 7 16.09 Partly Cloudy SCT070 11 9 88% 76.45 0.0
01 23:35 SW 4 16.09 Mostly Cloudy BKN070 11 9 88% 76.43 0.0
01 23:15 N 2 16.09 Mostly Cloudy SCT055 BKN070 12 8 77% 76.43 0.0
01 22:55 Vrbl 4 16.09 Mostly Cloudy BKN055 BKN070 14 7 63% 76.43 0.0
01 22:35 SE 4 16.09 Partly Cloudy FEW055 SCT070 SCT120 13 7 67% 76.43 0.0
01 22:15 E 6 16.09 Partly Cloudy SCT120 14 8 67% 76.4 0.0
01 21:55 SE 6 16.09 Mostly Cloudy BKN120 14 8 67% 76.4 0.0
01 21:35 E 7 16.09 Overcast FEW045 SCT060 OVC120 15 8 63% 76.38 0.0
01 21:15 E 9 16.09 Overcast FEW046 OVC060 15 8 63% 76.38 0.0
01 20:55 E 11 16.09 Overcast BKN050 OVC090 15 8 63% 76.35 0.0
01 20:35 NE 4 16.09 Overcast OVC090 16 9 63% 76.33 0.0
01 20:15 NE 2 16.09 Mostly Cloudy BKN090 BKN120 15 10 72% 76.28 0.0
01 19:55 NE 9 16.09 A Few Clouds FEW090 FEW120 16 11 72% 76.23 0.0
01 19:35 NE 7 16.09 Mostly Cloudy BKN090 16 10 68% 76.23 0.0
01 19:15 NE 9 16.09 Mostly Cloudy BKN090 16 10 68% 76.2 0.0
01 18:55 NE 11 16.09 Fair CLR 17 9 16.9 15.7 60% 76.17 0.0
01 18:35 NE 15 16.09 Fair CLR 16 9 63% 76.15 0.0
01 18:15 NE 17 16.09 Fair CLR 16 9 63% 76.12 0.0
01 17:55 NE 19 16.09 Fair CLR 17 9 60% 76.12 0.0
01 17:35 NE 17 16.09 Light Rain SCT065 SCT075 17 10 64% 76.12 0.0
01 17:15 NE 17 16.09 Partly Cloudy SCT065 SCT075 16 9 63% 76.12 0.0
01 16:55 N 15 16.09 Partly Cloudy SCT065 SCT090 16 10 68% 76.12 0.0
01 16:35 N 15 G 26 16.09 A Few Clouds FEW060 FEW090 16 10 68% 76.12 0.0
01 16:15 N 17 16.09 Partly Cloudy SCT060 16 9 63% 76.15 0.0
01 15:55 N 15 16.09 Light Rain BKN060 16 9 63% 76.17 0.0
01 15:35 N 13 16.09 Light Rain BKN060 OVC075 16 8 59% 76.17 0.0
01 15:15 N 9 16.09 Light Drizzle SCT060 OVC075 17 6 49% 76.2 0.0
01 14:55 NE 7 16.09 Overcast OVC060 16 6 52% 76.25 0.0
01 14:35 NE 9 16.09 Light Rain OVC050 16 6 52% 76.25 0.0
01 14:15 E 9 16.09 Overcast OVC050 16 6 52% 76.23 0.0
01 13:55 NE 15 16.09 Light Rain BKN050 BKN075 BKN100 16 6 52% 76.15 0.0
01 13:35 NE 19 16.09 Fair CLR 16 6 52% 76.1 0.0
01 13:15 NE 24 16.09 Partly Cloudy SCT050 16 6 52% 76.17 0.0
01 12:55 NE 17 16.09 Overcast OVC050 16 7 16.8 13.3 55% 76.2 0.0
01 12:35 NE 19 16.09 Overcast OVC050 16 8 59% 76.2 0.0
01 12:15 NE 26 16.09 Mostly Cloudy FEW026 FEW034 BKN050 16 9 63% 76.2 0.0
01 11:55 NE 20 16.09 A Few Clouds FEW050 16 10 68% 76.2 0.0
01 11:35 NE 24 16.09 Mostly Cloudy FEW019 FEW026 BKN050 16 10 68% 76.17 0.0
01 11:15 NE 19 16.09 Mostly Cloudy SCT022 SCT032 BKN050 15 12 82% 76.25 0.0
01 10:55 NE 19 16.09 Mostly Cloudy FEW017 FEW022 BKN120 15 12 82% 76.23 0.0
01 10:35 NE 17 16.09 Light Rain FEW020 SCT060 BKN120 15 12 82% 76.23 0.0
01 10:15 NE 15 16.09 Overcast OVC060 14 12 88% 76.25 0.0
01 09:55 NE 9 16.09 Mostly Cloudy BKN060 BKN070 BKN120 14 12 88% 76.23 0.0
01 09:35 NE 11 16.09 Partly Cloudy SCT050 SCT120 14 12 88% 76.2 0.0
01 09:15 NE 17 16.09 Light Rain BKN050 14 12 88% 76.15 0.0
01 08:55 NE 15 16.09 Light Rain OVC050 14 12 88% 76.2 0.0
01 08:35 N 7 16.09 Light Drizzle SCT050 BKN100 OVC120 13 12 94% 76.25 0.0
01 08:15 NE 6 16.09 Light Rain SCT065 SCT075 BKN095 14 12 88% 76.2 0.0
01 07:55 NE 13 16.09 Light Rain OVC047 14 12 88% 76.15 0.0
01 07:35 NE 11 16.09 Overcast OVC047 14 12 88% 76.15 0.0
01 07:17 NE 7 16.09 Overcast OVC045 14 11 82% 76.2 0.0
01 06:55 NE 6 16.09 Overcast FEW033 OVC043 13 12 15.3 13.2 94% 76.15 0.0
01 06:35 N 7 16.09 Overcast OVC041 13 12 94% 76.15 0.0
01 06:15 NE 7 16.09 Overcast OVC041 14 12 88% 76.1 0.0
01 05:55 N 9 16.09 Overcast OVC037 13 12 94% 76.1 0.0
01 05:35 NE 9 16.09 Light Drizzle OVC033 14 12 88% 76.1 0.0
01 05:15 NE 7 16.09 Light Drizzle OVC029 14 12 88% 76.12 0.0
01 04:55 NE 7 16.09 Light Rain OVC026 14 12 88% 76.12 0.0
01 04:35 NE 6 16.09 Overcast OVC026 14 12 88% 76.12 0.0
01 04:15 NE 7 16.09 Overcast OVC024 14 12 88% 76.12 0.0
01 03:55 N 6 16.09 Overcast OVC022 14 12 88% 76.15 0.0
01 03:35 N 9 16.09 Overcast OVC022 14 12 88% 76.12 0.0
01 03:15 Vrbl 11 16.09 Overcast SCT013 OVC020 14 12 88% 76.1 0.0
01 02:55 NE 17 16.09 Overcast BKN013 BKN020 OVC025 14 12 88% 76.1 0.0
01 02:35 NE 15 16.09 Overcast SCT017 OVC023 14 12 88% 76.12 0.0
01 02:15 NE 22 G 31 16.09 Overcast OVC021 15 12 82% 76.12 0.0
01 01:55 NE 20 16.09 Overcast OVC021 15 12 82% 76.12 0.0
01 01:35 NE 11 16.09 Light Drizzle OVC021 15 13 88% 76.17 0.0
01 01:15 E 9 16.09 Overcast OVC021 15 12 82% 76.2 0.0
01 00:55 E 15 16.09 Overcast OVC021 15 12 15.7 15.1 82% 76.17 0.0
01 00:35 NE 15 16.09 Overcast OVC021 15 12 82% 76.15 0.0
30 23:55 NE 9 16.09 Overcast OVC021 15 13 88% 76.2 0.0
30 23:35 N 9 16.09 Overcast OVC021 15 13 88% 76.2 0.0
30 23:15 NE 11 16.09 Overcast OVC021 15 13 88% 76.2 0.0
30 22:55 NE 9 16.09 Light Drizzle OVC021 15 13 88% 76.17 0.0
30 22:35 NE 11 16.09 Overcast OVC021 15 13 88% 76.15 0.0
30 22:15 N 7 16.09 Overcast OVC021 15 13 88% 76.12 0.0
30 21:55 N 4 16.09 Overcast OVC019 15 13 88% 76.15 0.0
30 21:35 N 7 16.09 Overcast OVC017 15 13 88% 76.12 0.0
30 20:55 NE 9 16.09 Overcast OVC017 16 13 83% 76.02 0.0
30 20:35 NE 13 16.09 Overcast OVC017 16 14 88% 75.97 0.0
30 20:15 E 7 16.09 Overcast OVC017 16 14 88% 76.05 0.0
30 19:55 E 7 16.09 Overcast OVC015 16 14 88% 76.02 0.0
30 19:35 E 7 16.09 Overcast BKN013 OVC028 16 14 88% 76.02 0.0
30 19:15 NE 7 16.09 Overcast FEW013 OVC028 16 14 88% 76.02 0.0
30 18:55 NE 11 16.09 Overcast BKN011 OVC028 15 14 16.8 15 94% 76.02 0.0
30 18:35 NE 13 16.09 Overcast BKN011 OVC026 16 14 88% 76 0.0
30 18:15 Vrbl 7 16.09 Overcast FEW009 OVC024 16 14 88% 75.97 0.0
Date Time (cdt) Wind (kph) Vis. (km) Weather Sky Cond. Air Dwpt Max. Min. Relative Humidity Wind Chill (°C) Heat Index (°C) altimeter (cm) sea level (mb) 1 hr 3 hr 6 hr
6 hour
Temperature (ºC) Pressure Precipitation (cm)